sensor_id;sensor_type;location;lat;lon;timestamp;P1;durP1;ratioP1;P2;durP2;ratioP2
68097;SDS011;54886;47.036;15.466;2022-12-07T00:05:35;17.45;;;8.68;;
68097;SDS011;54886;47.036;15.466;2022-12-07T00:08:00;13.50;;;8.68;;
68097;SDS011;54886;47.036;15.466;2022-12-07T00:10:26;14.18;;;7.95;;
68097;SDS011;54886;47.036;15.466;2022-12-07T00:12:52;14.93;;;8.27;;
68097;SDS011;54886;47.036;15.466;2022-12-07T00:15:17;15.52;;;9.20;;
68097;SDS011;54886;47.036;15.466;2022-12-07T00:21:06;15.35;;;8.98;;
68097;SDS011;54886;47.036;15.466;2022-12-07T00:23:34;16.67;;;9.75;;
68097;SDS011;54886;47.036;15.466;2022-12-07T00:26:06;18.52;;;9.68;;
68097;SDS011;54886;47.036;15.466;2022-12-07T00:31:55;15.13;;;9.15;;
68097;SDS011;54886;47.036;15.466;2022-12-07T00:34:21;17.67;;;9.70;;
68097;SDS011;54886;47.036;15.466;2022-12-07T00:36:47;14.60;;;8.95;;
68097;SDS011;54886;47.036;15.466;2022-12-07T00:39:13;17.40;;;10.05;;
68097;SDS011;54886;47.036;15.466;2022-12-07T00:41:40;14.73;;;9.20;;
68097;SDS011;54886;47.036;15.466;2022-12-07T00:44:05;16.30;;;10.00;;
68097;SDS011;54886;47.036;15.466;2022-12-07T00:46:31;18.52;;;9.55;;
68097;SDS011;54886;47.036;15.466;2022-12-07T00:52:19;15.90;;;9.50;;
68097;SDS011;54886;47.036;15.466;2022-12-07T00:54:44;17.05;;;9.35;;
68097;SDS011;54886;47.036;15.466;2022-12-07T00:57:10;15.38;;;9.85;;
68097;SDS011;54886;47.036;15.466;2022-12-07T00:59:35;15.55;;;10.10;;
68097;SDS011;54886;47.036;15.466;2022-12-07T01:02:01;16.55;;;9.77;;
68097;SDS011;54886;47.036;15.466;2022-12-07T01:07:48;16.40;;;9.52;;
68097;SDS011;54886;47.036;15.466;2022-12-07T01:17:34;19.15;;;9.18;;
68097;SDS011;54886;47.036;15.466;2022-12-07T01:23:21;17.90;;;9.93;;
68097;SDS011;54886;47.036;15.466;2022-12-07T01:25:53;17.85;;;10.02;;
68097;SDS011;54886;47.036;15.466;2022-12-07T01:28:22;16.52;;;9.10;;
68097;SDS011;54886;47.036;15.466;2022-12-07T01:31:01;17.73;;;9.65;;
68097;SDS011;54886;47.036;15.466;2022-12-07T01:33:28;15.00;;;8.80;;
68097;SDS011;54886;47.036;15.466;2022-12-07T01:36:03;16.30;;;8.75;;
68097;SDS011;54886;47.036;15.466;2022-12-07T01:38:30;15.23;;;9.02;;
68097;SDS011;54886;47.036;15.466;2022-12-07T01:40:56;15.48;;;8.57;;
68097;SDS011;54886;47.036;15.466;2022-12-07T01:46:48;14.40;;;8.18;;
68097;SDS011;54886;47.036;15.466;2022-12-07T01:52:38;16.50;;;8.43;;
68097;SDS011;54886;47.036;15.466;2022-12-07T01:58:26;14.77;;;8.20;;
68097;SDS011;54886;47.036;15.466;2022-12-07T02:04:14;14.10;;;8.25;;
68097;SDS011;54886;47.036;15.466;2022-12-07T02:06:40;14.00;;;8.15;;
68097;SDS011;54886;47.036;15.466;2022-12-07T02:09:08;15.60;;;9.05;;
68097;SDS011;54886;47.036;15.466;2022-12-07T02:14:55;19.60;;;9.60;;
68097;SDS011;54886;47.036;15.466;2022-12-07T02:23:29;16.58;;;10.45;;
68097;SDS011;54886;47.036;15.466;2022-12-07T02:29:40;16.90;;;9.13;;
68097;SDS011;54886;47.036;15.466;2022-12-07T02:44:30;15.73;;;8.85;;
68097;SDS011;54886;47.036;15.466;2022-12-07T02:50:20;16.80;;;9.38;;
68097;SDS011;54886;47.036;15.466;2022-12-07T03:11:29;18.77;;;9.02;;
68097;SDS011;54886;47.036;15.466;2022-12-07T03:14:13;17.05;;;9.50;;
68097;SDS011;54886;47.036;15.466;2022-12-07T03:16:41;15.27;;;9.13;;
68097;SDS011;54886;47.036;15.466;2022-12-07T03:19:14;16.60;;;9.60;;
68097;SDS011;54886;47.036;15.466;2022-12-07T03:21:44;18.33;;;9.77;;
68097;SDS011;54886;47.036;15.466;2022-12-07T03:24:17;20.17;;;10.32;;
68097;SDS011;54886;47.036;15.466;2022-12-07T03:26:51;16.65;;;9.63;;
68097;SDS011;54886;47.036;15.466;2022-12-07T03:29:28;19.55;;;10.00;;
68097;SDS011;54886;47.036;15.466;2022-12-07T03:32:00;19.35;;;10.30;;
68097;SDS011;54886;47.036;15.466;2022-12-07T03:34:39;18.20;;;9.98;;
68097;SDS011;54886;47.036;15.466;2022-12-07T03:37:18;19.35;;;9.60;;
68097;SDS011;54886;47.036;15.466;2022-12-07T03:42:27;17.92;;;9.48;;
68097;SDS011;54886;47.036;15.466;2022-12-07T03:44:53;18.73;;;9.63;;
68097;SDS011;54886;47.036;15.466;2022-12-07T03:53:26;16.73;;;7.88;;
68097;SDS011;54886;47.036;15.466;2022-12-07T03:55:54;18.33;;;9.05;;
68097;SDS011;54886;47.036;15.466;2022-12-07T04:01:43;15.40;;;8.18;;
68097;SDS011;54886;47.036;15.466;2022-12-07T04:07:31;16.90;;;8.48;;
68097;SDS011;54886;47.036;15.466;2022-12-07T04:13:19;18.58;;;9.32;;
68097;SDS011;54886;47.036;15.466;2022-12-07T04:19:06;16.13;;;8.27;;
68097;SDS011;54886;47.036;15.466;2022-12-07T04:21:32;14.75;;;8.10;;
68097;SDS011;54886;47.036;15.466;2022-12-07T04:23:57;15.68;;;8.18;;
68097;SDS011;54886;47.036;15.466;2022-12-07T04:26:23;18.55;;;8.63;;
68097;SDS011;54886;47.036;15.466;2022-12-07T04:28:49;18.70;;;8.80;;
68097;SDS011;54886;47.036;15.466;2022-12-07T04:34:36;19.13;;;8.80;;
68097;SDS011;54886;47.036;15.466;2022-12-07T04:37:01;19.02;;;9.55;;
68097;SDS011;54886;47.036;15.466;2022-12-07T04:39:28;17.85;;;8.82;;
68097;SDS011;54886;47.036;15.466;2022-12-07T04:44:22;15.90;;;7.70;;
68097;SDS011;54886;47.036;15.466;2022-12-07T04:46:48;13.90;;;7.10;;
68097;SDS011;54886;47.036;15.466;2022-12-07T04:52:35;16.40;;;8.13;;
68097;SDS011;54886;47.036;15.466;2022-12-07T04:55:01;17.13;;;8.50;;
68097;SDS011;54886;47.036;15.466;2022-12-07T04:57:26;17.10;;;9.02;;
68097;SDS011;54886;47.036;15.466;2022-12-07T04:59:52;16.27;;;8.73;;
68097;SDS011;54886;47.036;15.466;2022-12-07T05:02:18;17.77;;;8.82;;
68097;SDS011;54886;47.036;15.466;2022-12-07T05:04:43;14.48;;;7.68;;
68097;SDS011;54886;47.036;15.466;2022-12-07T05:07:09;17.95;;;9.00;;
68097;SDS011;54886;47.036;15.466;2022-12-07T05:09:35;13.88;;;8.20;;
68097;SDS011;54886;47.036;15.466;2022-12-07T05:15:22;18.80;;;8.82;;
68097;SDS011;54886;47.036;15.466;2022-12-07T05:17:47;16.73;;;8.50;;
68097;SDS011;54886;47.036;15.466;2022-12-07T05:20:13;17.10;;;8.45;;
68097;SDS011;54886;47.036;15.466;2022-12-07T05:22:39;13.48;;;7.22;;
68097;SDS011;54886;47.036;15.466;2022-12-07T05:28:26;15.27;;;7.18;;
68097;SDS011;54886;47.036;15.466;2022-12-07T05:30:52;14.02;;;7.57;;
68097;SDS011;54886;47.036;15.466;2022-12-07T05:33:18;13.30;;;7.68;;
68097;SDS011;54886;47.036;15.466;2022-12-07T05:35:43;12.43;;;7.13;;
68097;SDS011;54886;47.036;15.466;2022-12-07T05:38:09;13.57;;;7.25;;
68097;SDS011;54886;47.036;15.466;2022-12-07T05:44:03;13.60;;;7.03;;
68097;SDS011;54886;47.036;15.466;2022-12-07T05:46:29;17.17;;;7.95;;
68097;SDS011;54886;47.036;15.466;2022-12-07T05:48:55;14.80;;;7.57;;
68097;SDS011;54886;47.036;15.466;2022-12-07T05:51:20;14.93;;;7.82;;
68097;SDS011;54886;47.036;15.466;2022-12-07T05:53:46;14.60;;;8.38;;
68097;SDS011;54886;47.036;15.466;2022-12-07T05:56:12;17.05;;;8.40;;
68097;SDS011;54886;47.036;15.466;2022-12-07T05:58:37;14.93;;;8.10;;
68097;SDS011;54886;47.036;15.466;2022-12-07T06:01:22;19.40;;;8.38;;
68097;SDS011;54886;47.036;15.466;2022-12-07T06:03:47;17.27;;;8.55;;
68097;SDS011;54886;47.036;15.466;2022-12-07T06:06:31;15.50;;;7.93;;
68097;SDS011;54886;47.036;15.466;2022-12-07T06:12:18;16.77;;;8.85;;
68097;SDS011;54886;47.036;15.466;2022-12-07T06:15:03;13.65;;;7.70;;
68097;SDS011;54886;47.036;15.466;2022-12-07T06:17:29;14.18;;;7.75;;
68097;SDS011;54886;47.036;15.466;2022-12-07T06:23:16;15.05;;;8.30;;
68097;SDS011;54886;47.036;15.466;2022-12-07T06:25:45;14.88;;;7.88;;
68097;SDS011;54886;47.036;15.466;2022-12-07T06:31:32;13.07;;;7.32;;
68097;SDS011;54886;47.036;15.466;2022-12-07T06:37:19;15.65;;;8.23;;
68097;SDS011;54886;47.036;15.466;2022-12-07T06:43:07;16.75;;;7.47;;
68097;SDS011;54886;47.036;15.466;2022-12-07T06:45:33;13.30;;;7.88;;
68097;SDS011;54886;47.036;15.466;2022-12-07T06:47:58;16.13;;;7.80;;
68097;SDS011;54886;47.036;15.466;2022-12-07T06:53:45;14.23;;;8.05;;
68097;SDS011;54886;47.036;15.466;2022-12-07T06:56:11;13.77;;;7.82;;
68097;SDS011;54886;47.036;15.466;2022-12-07T06:58:37;15.75;;;8.45;;
68097;SDS011;54886;47.036;15.466;2022-12-07T07:04:26;15.90;;;7.50;;
68097;SDS011;54886;47.036;15.466;2022-12-07T07:06:52;14.75;;;7.55;;
68097;SDS011;54886;47.036;15.466;2022-12-07T07:09:17;14.10;;;8.30;;
68097;SDS011;54886;47.036;15.466;2022-12-07T07:15:05;15.75;;;8.38;;
68097;SDS011;54886;47.036;15.466;2022-12-07T07:17:31;18.52;;;9.15;;
68097;SDS011;54886;47.036;15.466;2022-12-07T07:23:18;15.15;;;8.57;;
68097;SDS011;54886;47.036;15.466;2022-12-07T07:29:06;20.50;;;8.48;;
68097;SDS011;54886;47.036;15.466;2022-12-07T07:34:53;15.45;;;8.45;;
68097;SDS011;54886;47.036;15.466;2022-12-07T07:37:19;17.40;;;10.27;;
68097;SDS011;54886;47.036;15.466;2022-12-07T07:39:44;17.63;;;9.55;;
68097;SDS011;54886;47.036;15.466;2022-12-07T07:45:31;17.50;;;9.48;;
68097;SDS011;54886;47.036;15.466;2022-12-07T07:51:19;18.30;;;8.98;;
68097;SDS011;54886;47.036;15.466;2022-12-07T07:53:45;17.80;;;8.85;;
68097;SDS011;54886;47.036;15.466;2022-12-07T07:59:32;19.63;;;9.80;;
68097;SDS011;54886;47.036;15.466;2022-12-07T08:05:20;16.80;;;9.13;;
68097;SDS011;54886;47.036;15.466;2022-12-07T08:11:08;16.25;;;8.63;;
68097;SDS011;54886;47.036;15.466;2022-12-07T08:13:34;18.92;;;9.18;;
68097;SDS011;54886;47.036;15.466;2022-12-07T08:16:06;17.70;;;9.40;;
68097;SDS011;54886;47.036;15.466;2022-12-07T08:18:36;17.30;;;9.75;;
68097;SDS011;54886;47.036;15.466;2022-12-07T08:21:04;18.67;;;8.73;;
68097;SDS011;54886;47.036;15.466;2022-12-07T08:26:52;16.63;;;9.02;;
68097;SDS011;54886;47.036;15.466;2022-12-07T08:29:17;21.60;;;9.68;;
68097;SDS011;54886;47.036;15.466;2022-12-07T08:31:43;21.85;;;9.77;;
68097;SDS011;54886;47.036;15.466;2022-12-07T08:34:12;18.15;;;9.85;;
68097;SDS011;54886;47.036;15.466;2022-12-07T08:36:38;19.75;;;9.45;;
68097;SDS011;54886;47.036;15.466;2022-12-07T08:39:04;18.15;;;9.68;;
68097;SDS011;54886;47.036;15.466;2022-12-07T08:41:29;18.65;;;9.75;;
68097;SDS011;54886;47.036;15.466;2022-12-07T08:47:17;18.08;;;10.13;;
68097;SDS011;54886;47.036;15.466;2022-12-07T08:49:45;20.58;;;9.77;;
68097;SDS011;54886;47.036;15.466;2022-12-07T08:52:13;18.80;;;10.25;;
68097;SDS011;54886;47.036;15.466;2022-12-07T08:58:00;16.83;;;9.18;;
68097;SDS011;54886;47.036;15.466;2022-12-07T09:00:27;15.98;;;9.55;;
68097;SDS011;54886;47.036;15.466;2022-12-07T09:02:53;19.45;;;10.50;;
68097;SDS011;54886;47.036;15.466;2022-12-07T09:05:19;20.08;;;10.73;;
68097;SDS011;54886;47.036;15.466;2022-12-07T09:07:46;19.90;;;11.10;;
68097;SDS011;54886;47.036;15.466;2022-12-07T09:13:37;17.08;;;9.75;;
68097;SDS011;54886;47.036;15.466;2022-12-07T09:16:03;19.92;;;10.55;;
68097;SDS011;54886;47.036;15.466;2022-12-07T09:18:29;24.63;;;11.32;;
68097;SDS011;54886;47.036;15.466;2022-12-07T09:20:55;21.33;;;11.48;;
68097;SDS011;54886;47.036;15.466;2022-12-07T09:23:22;20.10;;;10.32;;
68097;SDS011;54886;47.036;15.466;2022-12-07T09:25:48;20.85;;;11.18;;
68097;SDS011;54886;47.036;15.466;2022-12-07T09:28:14;22.80;;;12.20;;
68097;SDS011;54886;47.036;15.466;2022-12-07T09:34:01;24.05;;;11.50;;
68097;SDS011;54886;47.036;15.466;2022-12-07T09:39:48;24.95;;;11.98;;
68097;SDS011;54886;47.036;15.466;2022-12-07T09:47:54;21.00;;;10.90;;
68097;SDS011;54886;47.036;15.466;2022-12-07T09:53:42;21.88;;;11.35;;
68097;SDS011;54886;47.036;15.466;2022-12-07T09:59:31;24.10;;;12.15;;
68097;SDS011;54886;47.036;15.466;2022-12-07T10:05:20;27.17;;;12.90;;
68097;SDS011;54886;47.036;15.466;2022-12-07T10:07:50;21.90;;;12.48;;
68097;SDS011;54886;47.036;15.466;2022-12-07T10:10:22;22.40;;;12.48;;
68097;SDS011;54886;47.036;15.466;2022-12-07T10:19:39;22.33;;;11.93;;
68097;SDS011;54886;47.036;15.466;2022-12-07T10:25:28;26.27;;;13.10;;
68097;SDS011;54886;47.036;15.466;2022-12-07T10:31:21;23.27;;;12.40;;
68097;SDS011;54886;47.036;15.466;2022-12-07T10:36:19;23.40;;;12.10;;
68097;SDS011;54886;47.036;15.466;2022-12-07T10:38:49;21.58;;;13.05;;
68097;SDS011;54886;47.036;15.466;2022-12-07T10:41:25;26.20;;;13.48;;
68097;SDS011;54886;47.036;15.466;2022-12-07T10:49:57;26.10;;;13.15;;
68097;SDS011;54886;47.036;15.466;2022-12-07T11:31:13;21.67;;;12.35;;
68097;SDS011;54886;47.036;15.466;2022-12-07T11:34:00;22.48;;;12.02;;
68097;SDS011;54886;47.036;15.466;2022-12-07T11:37:21;22.42;;;12.23;;
68097;SDS011;54886;47.036;15.466;2022-12-07T11:43:26;20.98;;;11.82;;
68097;SDS011;54886;47.036;15.466;2022-12-07T11:49:21;22.85;;;11.75;;
68097;SDS011;54886;47.036;15.466;2022-12-07T11:51:57;19.90;;;11.50;;
68097;SDS011;54886;47.036;15.466;2022-12-07T11:54:28;20.60;;;11.80;;
68097;SDS011;54886;47.036;15.466;2022-12-07T11:56:59;22.73;;;12.07;;
68097;SDS011;54886;47.036;15.466;2022-12-07T11:59:30;24.88;;;12.27;;
68097;SDS011;54886;47.036;15.466;2022-12-07T12:02:24;22.67;;;12.20;;
68097;SDS011;54886;47.036;15.466;2022-12-07T12:08:16;22.10;;;12.02;;
68097;SDS011;54886;47.036;15.466;2022-12-07T12:14:33;20.38;;;12.05;;
68097;SDS011;54886;47.036;15.466;2022-12-07T12:24:27;19.83;;;11.63;;
68097;SDS011;54886;47.036;15.466;2022-12-07T12:33:03;25.67;;;12.02;;
68097;SDS011;54886;47.036;15.466;2022-12-07T12:35:37;22.65;;;12.95;;
68097;SDS011;54886;47.036;15.466;2022-12-07T12:41:01;22.67;;;12.32;;
68097;SDS011;54886;47.036;15.466;2022-12-07T12:43:40;19.55;;;12.43;;
68097;SDS011;54886;47.036;15.466;2022-12-07T12:55:16;22.73;;;12.27;;
68097;SDS011;54886;47.036;15.466;2022-12-07T13:04:00;27.80;;;12.80;;
68097;SDS011;54886;47.036;15.466;2022-12-07T13:12:15;20.63;;;11.10;;
68097;SDS011;54886;47.036;15.466;2022-12-07T13:14:59;20.85;;;11.45;;
68097;SDS011;54886;47.036;15.466;2022-12-07T13:20:47;17.67;;;10.55;;
68097;SDS011;54886;47.036;15.466;2022-12-07T13:26:47;20.35;;;10.80;;
68097;SDS011;54886;47.036;15.466;2022-12-07T13:32:35;19.83;;;11.10;;
68097;SDS011;54886;47.036;15.466;2022-12-07T13:38:23;19.02;;;11.02;;
68097;SDS011;54886;47.036;15.466;2022-12-07T13:44:16;21.17;;;11.38;;
68097;SDS011;54886;47.036;15.466;2022-12-07T13:46:57;22.15;;;11.63;;
68097;SDS011;54886;47.036;15.466;2022-12-07T13:52:48;19.10;;;11.15;;
68097;SDS011;54886;47.036;15.466;2022-12-07T13:58:35;19.45;;;11.90;;
68097;SDS011;54886;47.036;15.466;2022-12-07T14:01:01;20.02;;;11.70;;
68097;SDS011;54886;47.036;15.466;2022-12-07T14:03:29;20.33;;;12.15;;
68097;SDS011;54886;47.036;15.466;2022-12-07T14:09:22;18.83;;;11.15;;
68097;SDS011;54886;47.036;15.466;2022-12-07T14:11:50;15.95;;;10.82;;
68097;SDS011;54886;47.036;15.466;2022-12-07T14:14:30;21.98;;;11.63;;
68097;SDS011;54886;47.036;15.466;2022-12-07T14:16:58;19.45;;;11.40;;
68097;SDS011;54886;47.036;15.466;2022-12-07T14:22:54;19.10;;;11.35;;
68097;SDS011;54886;47.036;15.466;2022-12-07T14:28:43;19.27;;;11.48;;
68097;SDS011;54886;47.036;15.466;2022-12-07T14:34:30;17.70;;;10.70;;
68097;SDS011;54886;47.036;15.466;2022-12-07T14:40:19;17.52;;;10.82;;
68097;SDS011;54886;47.036;15.466;2022-12-07T14:42:53;21.48;;;12.43;;
68097;SDS011;54886;47.036;15.466;2022-12-07T14:45:22;19.80;;;11.82;;
68097;SDS011;54886;47.036;15.466;2022-12-07T14:47:48;19.65;;;11.52;;
68097;SDS011;54886;47.036;15.466;2022-12-07T14:50:15;19.77;;;12.02;;
68097;SDS011;54886;47.036;15.466;2022-12-07T14:56:04;19.67;;;11.98;;
68097;SDS011;54886;47.036;15.466;2022-12-07T14:58:30;19.67;;;11.75;;
68097;SDS011;54886;47.036;15.466;2022-12-07T15:00:57;19.33;;;11.50;;
68097;SDS011;54886;47.036;15.466;2022-12-07T15:06:55;19.55;;;11.77;;
68097;SDS011;54886;47.036;15.466;2022-12-07T15:09:24;23.77;;;11.63;;
68097;SDS011;54886;47.036;15.466;2022-12-07T15:15:12;25.67;;;12.05;;
68097;SDS011;54886;47.036;15.466;2022-12-07T15:21:00;21.85;;;11.95;;
68097;SDS011;54886;47.036;15.466;2022-12-07T15:26:47;21.50;;;12.48;;
68097;SDS011;54886;47.036;15.466;2022-12-07T15:29:13;23.65;;;12.50;;
68097;SDS011;54886;47.036;15.466;2022-12-07T15:31:40;20.75;;;12.48;;
68097;SDS011;54886;47.036;15.466;2022-12-07T15:37:27;21.33;;;12.65;;
68097;SDS011;54886;47.036;15.466;2022-12-07T15:39:53;19.52;;;12.10;;
68097;SDS011;54886;47.036;15.466;2022-12-07T15:42:18;20.20;;;11.73;;
68097;SDS011;54886;47.036;15.466;2022-12-07T15:44:44;20.30;;;12.05;;
68097;SDS011;54886;47.036;15.466;2022-12-07T15:47:36;21.80;;;12.15;;
68097;SDS011;54886;47.036;15.466;2022-12-07T15:50:07;21.92;;;12.45;;
68097;SDS011;54886;47.036;15.466;2022-12-07T15:52:35;19.27;;;11.30;;
68097;SDS011;54886;47.036;15.466;2022-12-07T15:55:01;21.63;;;12.85;;
68097;SDS011;54886;47.036;15.466;2022-12-07T15:57:28;19.02;;;11.70;;
68097;SDS011;54886;47.036;15.466;2022-12-07T16:03:16;19.75;;;11.95;;
68097;SDS011;54886;47.036;15.466;2022-12-07T16:05:48;17.70;;;11.95;;
68097;SDS011;54886;47.036;15.466;2022-12-07T16:11:39;19.83;;;11.75;;
68097;SDS011;54886;47.036;15.466;2022-12-07T16:17:26;21.60;;;12.50;;
68097;SDS011;54886;47.036;15.466;2022-12-07T16:23:19;18.52;;;10.35;;
68097;SDS011;54886;47.036;15.466;2022-12-07T16:25:45;17.67;;;10.90;;
68097;SDS011;54886;47.036;15.466;2022-12-07T16:28:11;22.05;;;11.73;;
68097;SDS011;54886;47.036;15.466;2022-12-07T16:33:59;17.27;;;10.52;;
68097;SDS011;54886;47.036;15.466;2022-12-07T16:36:24;17.40;;;11.02;;
68097;SDS011;54886;47.036;15.466;2022-12-07T16:38:52;20.02;;;12.10;;
68097;SDS011;54886;47.036;15.466;2022-12-07T16:44:40;16.70;;;10.55;;
68097;SDS011;54886;47.036;15.466;2022-12-07T16:47:06;19.88;;;11.90;;
68097;SDS011;54886;47.036;15.466;2022-12-07T16:49:32;18.58;;;11.68;;
68097;SDS011;54886;47.036;15.466;2022-12-07T16:55:19;20.15;;;11.00;;
68097;SDS011;54886;47.036;15.466;2022-12-07T16:57:45;21.00;;;11.48;;
68097;SDS011;54886;47.036;15.466;2022-12-07T17:00:11;19.65;;;11.27;;
68097;SDS011;54886;47.036;15.466;2022-12-07T17:02:37;18.50;;;11.40;;
68097;SDS011;54886;47.036;15.466;2022-12-07T17:05:02;19.00;;;11.60;;
68097;SDS011;54886;47.036;15.466;2022-12-07T17:07:28;18.60;;;11.52;;
68097;SDS011;54886;47.036;15.466;2022-12-07T17:09:54;18.85;;;11.90;;
68097;SDS011;54886;47.036;15.466;2022-12-07T17:15:41;19.02;;;11.65;;
68097;SDS011;54886;47.036;15.466;2022-12-07T17:18:07;19.77;;;11.90;;
68097;SDS011;54886;47.036;15.466;2022-12-07T17:20:33;17.73;;;10.98;;
68097;SDS011;54886;47.036;15.466;2022-12-07T17:22:58;17.20;;;11.07;;
68097;SDS011;54886;47.036;15.466;2022-12-07T17:25:24;19.00;;;11.85;;
68097;SDS011;54886;47.036;15.466;2022-12-07T17:31:12;16.83;;;10.30;;
68097;SDS011;54886;47.036;15.466;2022-12-07T17:33:38;17.65;;;10.57;;
68097;SDS011;54886;47.036;15.466;2022-12-07T17:36:11;17.65;;;11.25;;
68097;SDS011;54886;47.036;15.466;2022-12-07T17:41:41;18.80;;;11.57;;
68097;SDS011;54886;47.036;15.466;2022-12-07T17:44:26;17.38;;;10.82;;
68097;SDS011;54886;47.036;15.466;2022-12-07T17:46:52;18.63;;;11.15;;
68097;SDS011;54886;47.036;15.466;2022-12-07T17:49:20;18.13;;;11.07;;
68097;SDS011;54886;47.036;15.466;2022-12-07T17:51:46;17.15;;;10.90;;
68097;SDS011;54886;47.036;15.466;2022-12-07T17:54:30;17.75;;;11.65;;
68097;SDS011;54886;47.036;15.466;2022-12-07T17:56:55;18.30;;;11.68;;
68097;SDS011;54886;47.036;15.466;2022-12-07T17:59:20;17.05;;;10.98;;
68097;SDS011;54886;47.036;15.466;2022-12-07T18:01:46;17.45;;;11.32;;
68097;SDS011;54886;47.036;15.466;2022-12-07T18:04:11;19.08;;;11.75;;
68097;SDS011;54886;47.036;15.466;2022-12-07T18:06:37;18.45;;;11.80;;
68097;SDS011;54886;47.036;15.466;2022-12-07T18:09:12;17.10;;;11.32;;
68097;SDS011;54886;47.036;15.466;2022-12-07T18:11:38;17.73;;;11.18;;
68097;SDS011;54886;47.036;15.466;2022-12-07T18:14:05;17.35;;;11.30;;
68097;SDS011;54886;47.036;15.466;2022-12-07T18:16:31;18.95;;;11.75;;
68097;SDS011;54886;47.036;15.466;2022-12-07T18:21:26;17.27;;;11.07;;
68097;SDS011;54886;47.036;15.466;2022-12-07T18:23:54;18.70;;;11.85;;
68097;SDS011;54886;47.036;15.466;2022-12-07T18:26:21;19.05;;;12.05;;
68097;SDS011;54886;47.036;15.466;2022-12-07T18:28:48;20.10;;;11.68;;
68097;SDS011;54886;47.036;15.466;2022-12-07T18:31:14;19.05;;;12.02;;
68097;SDS011;54886;47.036;15.466;2022-12-07T18:33:40;18.77;;;11.68;;
68097;SDS011;54886;47.036;15.466;2022-12-07T18:36:07;19.80;;;12.07;;
68097;SDS011;54886;47.036;15.466;2022-12-07T18:38:33;17.63;;;11.70;;
68097;SDS011;54886;47.036;15.466;2022-12-07T18:41:00;19.60;;;11.82;;
68097;SDS011;54886;47.036;15.466;2022-12-07T18:43:25;18.80;;;12.07;;
68097;SDS011;54886;47.036;15.466;2022-12-07T18:45:51;19.00;;;12.00;;
68097;SDS011;54886;47.036;15.466;2022-12-07T18:48:18;17.08;;;11.82;;
68097;SDS011;54886;47.036;15.466;2022-12-07T18:50:45;18.60;;;11.55;;
68097;SDS011;54886;47.036;15.466;2022-12-07T18:53:11;20.80;;;12.88;;
68097;SDS011;54886;47.036;15.466;2022-12-07T18:55:37;20.25;;;11.75;;
68097;SDS011;54886;47.036;15.466;2022-12-07T18:58:02;22.65;;;13.18;;
68097;SDS011;54886;47.036;15.466;2022-12-07T19:00:29;21.80;;;12.95;;
68097;SDS011;54886;47.036;15.466;2022-12-07T19:02:56;20.85;;;13.10;;
68097;SDS011;54886;47.036;15.466;2022-12-07T19:05:22;20.58;;;12.40;;
68097;SDS011;54886;47.036;15.466;2022-12-07T19:07:47;18.15;;;12.00;;
68097;SDS011;54886;47.036;15.466;2022-12-07T19:10:14;19.37;;;12.37;;
68097;SDS011;54886;47.036;15.466;2022-12-07T19:12:40;20.80;;;12.98;;
68097;SDS011;54886;47.036;15.466;2022-12-07T19:15:06;19.65;;;12.98;;
68097;SDS011;54886;47.036;15.466;2022-12-07T19:17:32;21.33;;;13.30;;
68097;SDS011;54886;47.036;15.466;2022-12-07T19:19:58;20.15;;;13.18;;
68097;SDS011;54886;47.036;15.466;2022-12-07T19:22:23;20.67;;;13.77;;
68097;SDS011;54886;47.036;15.466;2022-12-07T19:24:50;22.98;;;14.07;;
68097;SDS011;54886;47.036;15.466;2022-12-07T19:27:17;20.20;;;12.68;;
68097;SDS011;54886;47.036;15.466;2022-12-07T19:29:43;20.73;;;13.30;;
68097;SDS011;54886;47.036;15.466;2022-12-07T19:32:11;23.17;;;13.80;;
68097;SDS011;54886;47.036;15.466;2022-12-07T19:34:37;21.00;;;13.30;;
68097;SDS011;54886;47.036;15.466;2022-12-07T19:37:05;20.15;;;13.02;;
68097;SDS011;54886;47.036;15.466;2022-12-07T19:39:30;19.92;;;13.13;;
68097;SDS011;54886;47.036;15.466;2022-12-07T19:41:56;20.35;;;13.77;;
68097;SDS011;54886;47.036;15.466;2022-12-07T19:44:23;20.20;;;13.07;;
68097;SDS011;54886;47.036;15.466;2022-12-07T19:46:50;19.92;;;12.32;;
68097;SDS011;54886;47.036;15.466;2022-12-07T19:49:17;20.90;;;12.73;;
68097;SDS011;54886;47.036;15.466;2022-12-07T19:51:45;19.92;;;12.88;;
68097;SDS011;54886;47.036;15.466;2022-12-07T19:56:39;19.95;;;12.65;;
68097;SDS011;54886;47.036;15.466;2022-12-07T19:59:05;21.17;;;13.02;;
68097;SDS011;54886;47.036;15.466;2022-12-07T20:01:32;21.10;;;13.15;;
68097;SDS011;54886;47.036;15.466;2022-12-07T20:03:58;19.88;;;13.05;;
68097;SDS011;54886;47.036;15.466;2022-12-07T20:06:23;21.17;;;12.80;;
68097;SDS011;54886;47.036;15.466;2022-12-07T20:08:49;21.10;;;13.27;;
68097;SDS011;54886;47.036;15.466;2022-12-07T20:11:16;21.80;;;14.35;;
68097;SDS011;54886;47.036;15.466;2022-12-07T20:14:02;21.38;;;13.38;;
68097;SDS011;54886;47.036;15.466;2022-12-07T20:16:29;22.08;;;13.52;;
68097;SDS011;54886;47.036;15.466;2022-12-07T20:18:54;20.65;;;12.98;;
68097;SDS011;54886;47.036;15.466;2022-12-07T20:21:20;21.80;;;13.30;;
68097;SDS011;54886;47.036;15.466;2022-12-07T20:23:45;19.60;;;13.02;;
68097;SDS011;54886;47.036;15.466;2022-12-07T20:26:12;23.50;;;14.70;;
68097;SDS011;54886;47.036;15.466;2022-12-07T20:28:38;23.97;;;14.30;;
68097;SDS011;54886;47.036;15.466;2022-12-07T20:31:05;20.58;;;13.95;;
68097;SDS011;54886;47.036;15.466;2022-12-07T20:33:30;24.02;;;13.27;;
68097;SDS011;54886;47.036;15.466;2022-12-07T20:36:03;20.48;;;13.18;;
68097;SDS011;54886;47.036;15.466;2022-12-07T20:38:29;21.15;;;13.13;;
68097;SDS011;54886;47.036;15.466;2022-12-07T20:40:59;21.52;;;13.30;;
68097;SDS011;54886;47.036;15.466;2022-12-07T20:43:26;21.88;;;14.02;;
68097;SDS011;54886;47.036;15.466;2022-12-07T20:45:52;23.00;;;14.35;;
68097;SDS011;54886;47.036;15.466;2022-12-07T20:48:18;24.25;;;14.75;;
68097;SDS011;54886;47.036;15.466;2022-12-07T20:50:43;21.23;;;13.48;;
68097;SDS011;54886;47.036;15.466;2022-12-07T20:53:09;21.48;;;14.23;;
68097;SDS011;54886;47.036;15.466;2022-12-07T20:55:34;22.67;;;13.43;;
68097;SDS011;54886;47.036;15.466;2022-12-07T20:58:00;22.30;;;13.73;;
68097;SDS011;54886;47.036;15.466;2022-12-07T21:00:26;23.02;;;13.90;;
68097;SDS011;54886;47.036;15.466;2022-12-07T21:02:52;20.77;;;12.82;;
68097;SDS011;54886;47.036;15.466;2022-12-07T21:05:17;22.95;;;14.07;;
68097;SDS011;54886;47.036;15.466;2022-12-07T21:07:43;23.40;;;14.27;;
68097;SDS011;54886;47.036;15.466;2022-12-07T21:10:09;21.02;;;12.65;;
68097;SDS011;54886;47.036;15.466;2022-12-07T21:12:35;21.08;;;13.18;;
68097;SDS011;54886;47.036;15.466;2022-12-07T21:15:00;25.05;;;13.50;;
68097;SDS011;54886;47.036;15.466;2022-12-07T21:17:25;22.98;;;13.82;;
68097;SDS011;54886;47.036;15.466;2022-12-07T21:19:51;21.65;;;12.77;;
68097;SDS011;54886;47.036;15.466;2022-12-07T21:22:16;22.20;;;13.27;;
68097;SDS011;54886;47.036;15.466;2022-12-07T21:24:42;21.80;;;12.80;;
68097;SDS011;54886;47.036;15.466;2022-12-07T21:27:08;22.83;;;13.15;;
68097;SDS011;54886;47.036;15.466;2022-12-07T21:29:33;20.40;;;12.88;;